Time;durP1;ratioP1;P1;durP2;ratioP2;P2;SDS_P1;SDS_P2;PMS_P1;PMS_P2;Temp;Humidity;BMP_temperature;BMP_pressure;BME280_temperature;BME280_humidity;BME280_pressure;Samples;Min_cycle;Max_cycle;Signal;HPM_P1;HPM_P2
2023/11/24 00:04:30;;;;;;;;;19.25;19.00;;;;;24.62;28.01;100055.48;245581;1183;73228;-58
2023/11/24 00:09:33;;;;;;;;;20.33;19.67;;;;;24.63;27.79;100051.81;245619;1177;57473;-58
2023/11/24 00:14:36;;;;;;;;;19.25;19.25;;;;;24.62;27.87;100043.01;245657;1182;57572;-58
2023/11/24 00:19:39;;;;;;;;;19.50;17.50;;;;;24.60;27.87;100038.94;245573;1182;57490;-58
2023/11/24 00:24:43;;;;;;;;;19.25;19.25;;;;;24.60;27.96;100036.20;245612;1177;74591;-58
2023/11/24 00:29:48;;;;;;;;;19.25;19.25;;;;;24.60;27.91;100023.84;245586;1183;74450;-57
2023/11/24 00:34:52;;;;;;;;;18.75;18.75;;;;;24.60;28.24;100010.99;245638;1181;74033;-58
2023/11/24 00:39:55;;;;;;;;;20.00;20.00;;;;;24.59;27.95;100002.89;245586;1183;73923;-58
2023/11/24 00:44:58;;;;;;;;;19.75;18.50;;;;;24.56;27.90;99984.31;245588;1184;73846;-57
2023/11/24 00:50:02;;;;;;;;;22.00;21.50;;;;;24.54;27.97;99977.40;245560;1183;57522;-58
2023/11/24 00:55:05;;;;;;;;;20.75;20.25;;;;;24.54;28.00;99966.23;245623;1182;73637;-58
2023/11/24 01:00:09;;;;;;;;;21.00;21.00;;;;;24.54;28.06;99968.27;245575;1190;74193;-58
2023/11/24 01:05:12;;;;;;;;;20.75;18.50;;;;;24.53;27.90;99966.48;245584;1182;72925;-57
2023/11/24 01:10:16;;;;;;;;;21.33;21.33;;;;;24.53;27.95;99962.95;245588;1191;73529;-58
2023/11/24 01:15:20;;;;;;;;;19.75;19.25;;;;;24.53;27.96;99948.23;245576;1182;72689;-59
2023/11/24 01:20:25;;;;;;;;;19.75;18.75;;;;;24.54;28.03;99941.02;245544;1177;73226;-59
2023/11/24 01:25:28;;;;;;;;;21.50;18.25;;;;;24.55;28.05;99923.72;245552;1182;74879;-59
2023/11/24 01:30:33;;;;;;;;;21.75;20.50;;;;;24.54;28.12;99911.19;245534;1182;73534;-58
2023/11/24 01:35:37;;;;;;;;;23.75;20.75;;;;;24.55;28.03;99899.88;245522;1177;72926;-59
2023/11/24 01:40:41;;;;;;;;;21.25;20.25;;;;;24.54;28.02;99885.44;245531;1182;73850;-59
2023/11/24 01:45:45;;;;;;;;;22.25;21.25;;;;;24.53;27.98;99882.41;245570;1178;73556;-60
2023/11/24 01:50:48;;;;;;;;;21.50;19.25;;;;;24.52;28.04;99872.33;245599;1182;73162;-57
2023/11/24 01:55:52;;;;;;;;;20.25;20.25;;;;;24.51;28.10;99871.99;245535;1177;73998;-60
2023/11/24 02:00:56;;;;;;;;;18.50;18.50;;;;;24.51;28.08;99866.25;245551;1179;74326;-59
2023/11/24 02:06:01;;;;;;;;;18.00;18.00;;;;;24.50;27.96;99858.91;245563;1182;73645;-57
2023/11/24 02:11:05;;;;;;;;;22.75;20.50;;;;;24.49;28.02;99845.83;245611;1183;73198;-59
2023/11/24 02:16:08;;;;;;;;;20.50;20.25;;;;;24.49;28.02;99820.80;245522;1182;74858;-58
2023/11/24 02:21:12;;;;;;;;;17.25;17.25;;;;;24.49;28.03;99811.52;245584;1183;73537;-59
2023/11/24 02:26:15;;;;;;;;;18.00;18.00;;;;;24.48;27.96;99808.42;245559;1183;73524;-58
2023/11/24 02:31:19;;;;;;;;;18.25;18.25;;;;;24.46;28.01;99796.05;245500;1180;57462;-58
2023/11/24 02:36:27;;;;;;;;;19.75;19.50;;;;;24.47;28.00;99782.51;245608;1191;73967;-57
2023/11/24 02:41:32;;;;;;;;;18.75;18.75;;;;;24.47;28.05;99766.81;245550;1183;73832;-59
2023/11/24 02:46:35;;;;;;;;;18.50;18.50;;;;;24.46;28.00;99765.94;245564;1177;73288;-57
2023/11/24 02:51:39;;;;;;;;;18.25;18.25;;;;;24.45;28.02;99767.17;245548;1177;73299;-59
2023/11/24 02:56:42;;;;;;;;;19.50;19.00;;;;;24.46;28.00;99761.11;245520;1179;74508;-59
2023/11/24 03:01:45;;;;;;;;;19.50;19.50;;;;;24.46;28.11;99744.39;245566;1180;57577;-59
2023/11/24 03:06:48;;;;;;;;;17.50;16.00;;;;;24.46;28.10;99744.72;245547;1183;72832;-59
2023/11/24 03:11:52;;;;;;;;;17.67;17.67;;;;;24.44;28.16;99741.33;245602;1183;57604;-59
2023/11/24 03:16:56;;;;;;;;;18.50;17.75;;;;;24.44;28.17;99732.73;245534;1183;74026;-58
2023/11/24 03:21:59;;;;;;;;;18.00;18.00;;;;;24.44;28.18;99724.54;245612;1182;74804;-59
2023/11/24 03:27:02;;;;;;;;;17.75;16.25;;;;;24.43;28.16;99719.33;245599;1180;57532;-58
2023/11/24 03:32:06;;;;;;;;;16.75;16.75;;;;;24.43;28.04;99734.97;245662;1183;73048;-58
2023/11/24 03:37:10;;;;;;;;;19.00;19.00;;;;;24.43;28.11;99734.95;245592;1182;72498;-59
2023/11/24 03:42:13;;;;;;;;;19.50;18.25;;;;;24.43;28.35;99730.15;245674;1183;73406;-58
2023/11/24 03:47:17;;;;;;;;;18.75;18.00;;;;;24.42;28.27;99724.73;245700;1181;57518;-59
2023/11/24 03:52:20;;;;;;;;;18.67;18.67;;;;;24.42;28.30;99724.99;245711;1183;73080;-60
2023/11/24 03:57:24;;;;;;;;;16.75;16.75;;;;;24.41;28.35;99715.16;245619;1183;73866;-59
2023/11/24 04:02:27;;;;;;;;;17.25;17.25;;;;;24.40;28.29;99710.83;245569;1182;73285;-59
2023/11/24 04:07:30;;;;;;;;;17.00;17.00;;;;;24.40;28.26;99694.71;245636;1183;73058;-59
2023/11/24 04:12:33;;;;;;;;;18.33;18.00;;;;;24.44;28.36;99697.09;245658;1177;57759;-59
2023/11/24 04:17:38;;;;;;;;;17.00;17.00;;;;;24.55;28.34;99707.75;245608;1182;73048;-58
2023/11/24 04:22:41;;;;;;;;;18.25;18.25;;;;;24.69;27.71;99703.40;245560;1184;74276;-59
2023/11/24 04:27:44;;;;;;;;;20.25;18.50;;;;;24.85;27.36;99704.73;245609;1177;72971;-58
2023/11/24 04:32:48;;;;;;;;;19.50;18.75;;;;;25.02;26.81;99686.29;245618;1182;73066;-60
2023/11/24 04:37:51;;;;;;;;;16.25;16.25;;;;;25.16;26.53;99673.11;245555;1182;73183;-59
2023/11/24 04:42:55;;;;;;;;;19.00;19.00;;;;;25.26;26.43;99646.52;245599;1182;72908;-59
2023/11/24 04:47:58;;;;;;;;;20.67;19.67;;;;;25.34;25.89;99640.27;245558;1183;72956;-58
2023/11/24 04:53:05;;;;;;;;;20.00;19.50;;;;;25.41;25.81;99667.25;245629;1177;73662;-59
2023/11/24 04:58:09;;;;;;;;;16.00;16.00;;;;;25.49;25.60;99646.42;245608;1184;73074;-57
2023/11/24 05:03:12;;;;;;;;;21.00;20.33;;;;;25.50;25.20;99609.80;245555;1177;73313;-58
2023/11/24 05:08:16;;;;;;;;;21.00;19.50;;;;;25.25;24.45;99615.05;245563;1182;73997;-59
2023/11/24 05:13:19;;;;;;;;;22.75;22.75;;;;;24.89;24.41;99594.89;245549;1183;73985;-59
2023/11/24 05:18:24;;;;;;;;;25.25;24.25;;;;;24.70;24.64;99601.70;245531;1177;73645;-59
2023/11/24 05:23:27;;;;;;;;;21.00;21.00;;;;;24.78;24.73;99611.98;245563;1182;74023;-59
2023/11/24 05:28:31;;;;;;;;;22.50;21.75;;;;;24.89;24.63;99588.59;245499;1182;72840;-59
2023/11/24 05:33:34;;;;;;;;;20.00;19.67;;;;;24.94;24.63;99578.01;245464;1183;73370;-57
2023/11/24 05:38:37;;;;;;;;;23.00;23.00;;;;;24.95;24.53;99570.41;245393;1183;74068;-59
2023/11/24 05:43:41;;;;;;;;;27.50;23.75;;;;;24.79;24.44;99576.71;245390;1183;74185;-60
2023/11/24 05:48:44;;;;;;;;;26.75;25.25;;;;;24.61;25.94;99570.18;245335;1184;57550;-61
2023/11/24 05:53:47;;;;;;;;;26.25;23.75;;;;;24.65;27.05;99568.63;245405;1177;73749;-57
2023/11/24 05:58:53;;;;;;;;;19.75;19.50;;;;;24.99;27.77;99570.51;245240;1187;73777;-58
2023/11/24 06:03:58;;;;;;;;;18.50;17.50;;;;;25.45;28.60;99570.86;245428;1177;73230;-56
2023/11/24 06:09:03;;;;;;;;;22.00;20.67;;;;;25.81;28.87;99579.91;245375;1182;73492;-59
2023/11/24 06:14:07;;;;;;;;;21.75;19.50;;;;;26.04;29.23;99565.28;245315;1182;73777;-60
2023/11/24 06:19:10;;;;;;;;;25.00;23.00;;;;;26.31;28.99;99552.94;245426;1182;73395;-59
2023/11/24 06:24:14;;;;;;;;;20.00;18.00;;;;;26.55;29.53;99545.61;245108;1177;73561;-60
2023/11/24 06:29:17;;;;;;;;;26.75;19.50;;;;;26.77;29.56;99542.55;245364;1183;73201;-59
2023/11/24 06:34:21;;;;;;;;;19.75;19.75;;;;;26.95;29.79;99554.32;245280;1177;73884;-59
2023/11/24 06:39:25;;;;;;;;;17.50;17.50;;;;;27.11;29.80;99564.11;245334;1177;73263;-60
2023/11/24 06:44:28;;;;;;;;;19.00;18.00;;;;;27.23;29.78;99561.62;245415;1183;74675;-59
2023/11/24 06:49:34;;;;;;;;;17.00;15.50;;;;;27.36;29.96;99564.69;245344;1177;72795;-59
2023/11/24 06:54:38;;;;;;;;;22.00;20.00;;;;;27.46;29.97;99558.61;245212;1177;74207;-60
2023/11/24 06:59:42;;;;;;;;;25.75;25.50;;;;;27.37;27.94;99546.13;245267;1178;73574;-59
2023/11/24 07:04:47;;;;;;;;;24.50;23.50;;;;;26.96;28.25;99550.91;244940;1177;74556;-59
2023/11/24 07:09:50;;;;;;;;;21.50;19.50;;;;;27.06;29.84;99557.64;245128;1177;74746;-59
2023/11/24 07:14:54;;;;;;;;;24.33;22.67;;;;;27.32;31.25;99555.59;244912;1179;73375;-61
2023/11/24 07:20:00;;;;;;;;;18.50;18.50;;;;;27.50;31.81;99554.90;245042;1177;74055;-63
2023/11/24 07:25:06;;;;;;;;;26.00;25.50;;;;;27.61;31.47;99546.17;244775;1178;75390;-61
2023/11/24 07:30:10;;;;;;;;;26.25;26.25;;;;;27.52;28.63;99546.88;244774;1177;73433;-61
2023/11/24 07:35:14;;;;;;;;;36.50;31.25;;;;;27.30;27.63;99545.38;244780;1177;74253;-61
2023/11/24 07:40:21;;;;;;;;;27.67;26.33;;;;;27.13;27.12;99534.09;244844;1180;74210;-61
2023/11/24 07:45:25;;;;;;;;;25.50;25.50;;;;;26.97;26.70;99531.91;245361;1187;72823;-60
2023/11/24 07:50:28;;;;;;;;;28.00;26.25;;;;;26.87;26.48;99535.91;244953;1177;73587;-61
2023/11/24 07:55:34;;;;;;;;;24.00;22.00;;;;;26.88;26.93;99533.41;245135;1177;72863;-60
2023/11/24 08:00:40;;;;;;;;;26.50;22.50;;;;;26.92;27.05;99544.05;245296;1183;74425;-62
2023/11/24 08:05:50;;;;;;;;;24.75;24.75;;;;;26.93;28.13;99554.32;245149;1177;72316;-62
2023/11/24 08:10:57;;;;;;;;;20.00;20.00;;;;;27.11;29.27;99552.36;245368;1177;75107;-60
2023/11/24 08:16:03;;;;;;;;;26.25;24.50;;;;;27.35;30.19;99559.14;245225;1182;73133;-60
2023/11/24 08:21:09;;;;;;;;;22.50;22.00;;;;;27.49;30.49;99560.18;245353;1177;73484;-64
2023/11/24 08:26:15;;;;;;;;;25.25;23.25;;;;;27.72;30.88;99568.98;245327;1177;73132;-62
2023/11/24 08:31:20;;;;;;;;;18.25;18.25;;;;;27.93;31.22;99566.45;245318;1177;73689;-63
2023/11/24 08:36:27;;;;;;;;;23.50;20.50;;;;;27.92;31.98;99568.94;245146;1177;74238;-61
2023/11/24 08:41:34;;;;;;;;;23.75;23.50;;;;;27.95;32.68;99571.83;245258;1178;73600;-63
2023/11/24 08:46:45;;;;;;;;;24.75;24.25;;;;;27.83;31.92;99568.33;245346;1183;73937;-64
2023/11/24 08:51:50;;;;;;;;;24.50;22.75;;;;;27.57;31.63;99567.61;245322;1177;73735;-60
2023/11/24 08:56:59;;;;;;;;;27.75;26.00;;;;;27.27;29.73;99536.61;245143;1182;72054;-60
2023/11/24 09:02:11;;;;;;;;;29.25;26.50;;;;;26.72;27.89;99517.16;245289;1183;73337;-61
2023/11/24 09:07:23;;;;;;;;;23.00;23.00;;;;;26.47;29.93;99506.45;245284;1183;73037;-62
2023/11/24 09:12:35;;;;;;;;;22.00;21.25;;;;;26.75;30.45;99488.73;245316;1182;73460;-61
2023/11/24 09:17:42;;;;;;;;;26.00;26.00;;;;;27.07;30.91;99483.81;245310;1177;73318;-61
2023/11/24 09:22:45;;;;;;;;;26.00;22.75;;;;;27.36;31.33;99472.42;245268;1182;73296;-62
2023/11/24 09:27:49;;;;;;;;;23.67;20.67;;;;;27.58;31.37;99462.09;245104;1187;73697;-61
2023/11/24 09:32:54;;;;;;;;;22.00;21.75;;;;;27.72;31.54;99445.36;245406;1182;74211;-61
2023/11/24 09:37:58;;;;;;;;;25.75;21.75;;;;;27.86;31.46;99430.80;245395;1181;74839;-65
2023/11/24 09:43:05;;;;;;;;;18.50;17.50;;;;;27.96;31.45;99428.69;245453;1177;72714;-61
2023/11/24 09:48:11;;;;;;;;;19.50;19.50;;;;;28.07;31.69;99421.01;245414;1181;74532;-62
2023/11/24 09:53:18;;;;;;;;;20.75;19.00;;;;;28.18;32.15;99410.89;245388;1187;72457;-61
2023/11/24 09:58:23;;;;;;;;;24.00;22.75;;;;;28.07;29.73;99401.70;245384;1183;74114;-62
2023/11/24 10:03:28;;;;;;;;;22.75;22.75;;;;;27.75;29.22;99404.13;244938;1179;73933;-62
2023/11/24 10:08:32;;;;;;;;;23.00;21.00;;;;;27.60;29.34;99398.14;245113;1177;73599;-62
2023/11/24 10:13:35;;;;;;;;;24.25;23.50;;;;;27.46;29.30;99386.32;245330;1177;57550;-62
2023/11/24 10:18:41;;;;;;;;;22.00;21.75;;;;;27.35;29.03;99372.44;245423;1177;73083;-62
2023/11/24 10:23:46;;;;;;;;;23.25;21.50;;;;;27.25;28.36;99360.22;245449;1183;72850;-63
2023/11/24 10:28:52;;;;;;;;;21.00;19.75;;;;;27.14;27.93;99351.30;245474;1177;73662;-62
2023/11/24 10:33:55;;;;;;;;;18.50;18.00;;;;;27.06;27.83;99352.41;245506;1177;73643;-62
2023/11/24 10:39:06;;;;;;;;;20.25;19.75;;;;;27.01;27.68;99345.36;245426;1177;57563;-62
2023/11/24 10:44:12;;;;;;;;;23.50;21.25;;;;;26.99;27.57;99344.39;245441;1177;73164;-62
2023/11/24 10:49:34;;;;;;;;;19.00;17.25;;;;;26.98;27.28;99337.95;245445;1177;72615;-63
2023/11/24 10:54:41;;;;;;;;;23.25;19.75;;;;;26.97;27.13;99323.36;245278;1180;74345;-62
2023/11/24 10:59:49;;;;;;;;;22.00;19.00;;;;;26.94;27.05;99318.05;245414;1182;74070;-63
2023/11/24 11:05:28;;;;;;;;;20.33;18.67;;;;;26.92;26.85;99305.51;245151;1177;74532;-62
2023/11/24 11:10:44;;;;;;;;;21.00;21.00;;;;;26.92;26.71;99293.88;245035;1182;72493;-63
2023/11/24 11:15:50;;;;;;;;;19.75;18.50;;;;;26.90;26.56;99290.83;245429;1177;73449;-63
2023/11/24 11:20:54;;;;;;;;;22.33;19.67;;;;;26.89;26.29;99287.15;245477;1182;72945;-62
2023/11/24 11:26:02;;;;;;;;;23.50;19.50;;;;;26.87;26.73;99269.44;245453;1177;72860;-63
2023/11/24 11:31:33;;;;;;;;;18.00;16.75;;;;;26.87;26.42;99274.55;245434;1182;73261;-62
2023/11/24 11:36:47;;;;;;;;;21.25;19.25;;;;;26.86;26.36;99273.73;245436;1180;74122;-63
2023/11/24 11:41:51;;;;;;;;;25.25;23.00;;;;;26.84;26.33;99268.23;245298;1182;74943;-63
2023/11/24 11:52:23;;;;;;;;;21.25;19.00;;;;;26.83;26.21;99255.95;245387;1181;73699;-62
2023/11/24 11:57:30;;;;;;;;;21.75;21.75;;;;;26.81;26.09;99247.72;245414;1182;73503;-62
2023/11/24 12:02:36;;;;;;;;;19.75;18.25;;;;;26.76;26.22;99244.00;245443;1177;74415;-62
2023/11/24 12:07:43;;;;;;;;;19.25;19.25;;;;;26.68;26.03;99231.27;245508;1183;72787;-63
2023/11/24 12:12:47;;;;;;;;;20.33;17.33;;;;;26.58;25.92;99212.90;245465;1182;74573;-62
2023/11/24 12:17:56;;;;;;;;;20.50;19.50;;;;;26.44;26.25;99214.85;245561;1182;72687;-64
2023/11/24 12:23:06;;;;;;;;;24.75;21.00;;;;;26.35;26.88;99220.31;245572;1184;73508;-64
2023/11/24 12:28:11;;;;;;;;;23.75;18.75;;;;;26.24;27.01;99228.48;245534;1183;74852;-64
2023/11/24 12:33:14;;;;;;;;;24.50;19.75;;;;;26.18;26.93;99234.20;245577;1179;73350;-64
2023/11/24 12:38:19;;;;;;;;;21.00;17.75;;;;;26.13;27.22;99232.70;245619;1183;57607;-64
2023/11/24 12:43:22;;;;;;;;;25.75;21.25;;;;;26.08;27.38;99237.20;245600;1183;73685;-64
2023/11/24 12:48:34;;;;;;;;;23.00;21.75;;;;;26.00;27.19;99235.20;245560;1183;73770;-64
2023/11/24 12:53:38;;;;;;;;;19.00;19.00;;;;;25.99;27.60;99242.55;245588;1180;73653;-64
2023/11/24 12:58:41;;;;;;;;;19.50;18.75;;;;;25.96;27.79;99240.76;245579;1177;74358;-63
2023/11/24 13:03:47;;;;;;;;;19.00;19.00;;;;;25.92;27.91;99233.98;245567;1183;57596;-63
2023/11/24 13:08:50;;;;;;;;;17.25;17.25;;;;;25.86;27.90;99235.74;245539;1183;73961;-63
2023/11/24 13:13:53;;;;;;;;;18.00;18.00;;;;;25.82;27.90;99233.14;245562;1183;57450;-64
2023/11/24 13:18:57;;;;;;;;;22.25;20.25;;;;;25.77;27.92;99231.84;245592;1177;72948;-60
2023/11/24 13:24:01;;;;;;;;;19.75;19.50;;;;;25.72;27.92;99244.25;245384;1183;72834;-62
2023/11/24 13:29:04;;;;;;;;;22.00;22.00;;;;;25.68;27.96;99241.35;245564;1177;74251;-63
2023/11/24 13:34:07;;;;;;;;;23.50;22.50;;;;;25.65;28.08;99239.65;245583;1183;72858;-61
2023/11/24 13:39:13;;;;;;;;;18.50;18.50;;;;;25.61;28.13;99238.90;245568;1184;74258;-63
2023/11/24 13:44:16;;;;;;;;;27.75;23.50;;;;;25.58;28.16;99236.83;245633;1184;74317;-63
2023/11/24 13:49:19;;;;;;;;;21.00;21.00;;;;;25.57;28.46;99234.37;245619;1178;72739;-62
2023/11/24 13:54:23;;;;;;;;;23.00;21.00;;;;;25.56;28.21;99233.48;245610;1190;73403;-62
2023/11/24 13:59:26;;;;;;;;;22.33;22.33;;;;;25.53;28.26;99236.52;245671;1183;74177;-64
2023/11/24 14:04:33;;;;;;;;;31.33;28.00;;;;;25.50;28.30;99246.42;245647;1182;57574;-63
2023/11/24 14:09:39;;;;;;;;;29.00;28.00;;;;;25.47;28.55;99255.23;245677;1190;73104;-65
2023/11/24 14:14:43;;;;;;;;;25.75;24.00;;;;;25.45;28.69;99251.73;245651;1183;72799;-62
2023/11/24 14:19:46;;;;;;;;;23.50;22.50;;;;;25.41;28.36;99253.05;245598;1190;72719;-64
2023/11/24 14:24:49;;;;;;;;;26.75;26.50;;;;;25.39;28.51;99265.65;245647;1184;57526;-62
2023/11/24 14:29:52;;;;;;;;;28.75;26.25;;;;;25.37;28.67;99271.13;245679;1182;57567;-61
2023/11/24 14:34:55;;;;;;;;;34.00;30.50;;;;;25.34;28.71;99259.52;245662;1181;73294;-62
2023/11/24 14:40:00;;;;;;;;;30.75;28.25;;;;;25.32;28.69;99251.75;245635;1177;74198;-64
2023/11/24 14:45:04;;;;;;;;;29.00;26.33;;;;;25.29;28.65;99250.44;245740;1177;73456;-63
2023/11/24 14:50:09;;;;;;;;;26.50;25.00;;;;;25.28;28.71;99262.22;245649;1182;75633;-62
2023/11/24 14:55:13;;;;;;;;;31.75;29.75;;;;;25.26;28.71;99266.63;245670;1182;73801;-62
2023/11/24 15:00:29;;;;;;;;;36.75;31.00;;;;;25.24;28.72;99260.45;245622;1182;73197;-62
2023/11/24 15:05:41;;;;;;;;;26.00;26.00;;;;;25.23;28.73;99265.11;245576;1190;74281;-62
2023/11/24 15:10:46;;;;;;;;;32.75;29.00;;;;;25.20;28.96;99263.46;245260;1182;73323;-62
2023/11/24 15:15:49;;;;;;;;;27.50;24.00;;;;;25.19;28.89;99244.42;245611;1183;73748;-62
2023/11/24 15:20:53;;;;;;;;;27.00;24.75;;;;;25.18;28.91;99241.86;245620;1182;73517;-62
2023/11/24 15:25:57;;;;;;;;;27.75;27.75;;;;;25.16;28.92;99224.88;245646;1177;74221;-62
2023/11/24 15:31:00;;;;;;;;;30.50;28.00;;;;;25.15;28.84;99210.55;245671;1182;73203;-64
2023/11/24 15:36:08;;;;;;;;;34.50;31.25;;;;;25.13;28.94;99192.73;245628;1183;72896;-64
2023/11/24 15:41:21;;;;;;;;;27.67;26.67;;;;;25.14;29.13;99195.23;245605;1177;72588;-65
2023/11/24 15:46:30;;;;;;;;;28.50;26.75;;;;;25.15;29.13;99197.52;245544;1182;71787;-65
2023/11/24 15:51:34;;;;;;;;;28.00;25.00;;;;;25.15;28.97;99189.10;245633;1182;74162;-64
2023/11/24 15:56:39;;;;;;;;;29.00;28.25;;;;;25.15;29.15;99184.45;245653;1181;73918;-65
2023/11/24 16:01:42;;;;;;;;;21.75;21.75;;;;;25.15;29.11;99182.42;245630;1182;73172;-64
2023/11/24 16:06:47;;;;;;;;;25.00;21.50;;;;;25.15;29.10;99184.06;245647;1177;73364;-62
2023/11/24 16:12:07;;;;;;;;;21.50;21.00;;;;;25.15;29.16;99182.16;245653;1182;73180;-60
2023/11/24 16:17:12;;;;;;;;;27.67;24.33;;;;;25.15;29.29;99178.20;245669;1177;72771;-61
2023/11/24 16:22:16;;;;;;;;;31.33;26.67;;;;;25.15;29.45;99176.02;245646;1184;72893;-60
2023/11/24 16:27:19;;;;;;;;;27.67;25.67;;;;;25.14;29.38;99177.30;245599;1183;74039;-62
2023/11/24 16:32:24;;;;;;;;;26.75;25.25;;;;;25.15;29.37;99185.77;245592;1180;72853;-62
2023/11/24 16:37:27;;;;;;;;;25.00;24.50;;;;;25.14;29.46;99183.47;245603;1182;73417;-61
2023/11/24 16:42:30;;;;;;;;;23.25;23.25;;;;;25.14;29.35;99175.05;245703;1178;73631;-62
2023/11/24 16:47:34;;;;;;;;;22.33;20.33;;;;;25.13;29.42;99169.19;245655;1182;73512;-63
2023/11/24 16:52:40;;;;;;;;;25.00;25.00;;;;;25.13;29.59;99162.25;245659;1182;73135;-62
2023/11/24 16:57:49;;;;;;;;;23.33;21.67;;;;;25.12;29.49;99168.86;243699;1177;73647;-61
2023/11/24 17:02:54;;;;;;;;;25.33;23.33;;;;;24.98;29.61;99185.59;240491;1177;73105;-61
2023/11/24 17:08:03;;;;;;;;;25.00;25.00;;;;;24.82;29.96;99186.18;242099;1177;72998;-61
2023/11/24 17:13:07;;;;;;;;;23.75;22.50;;;;;24.72;30.17;99192.91;240647;1184;74225;-61
2023/11/24 17:18:12;;;;;;;;;21.75;21.75;;;;;24.61;30.23;99186.70;240601;1177;73721;-69
2023/11/24 17:23:17;;;;;;;;;22.00;22.00;;;;;24.54;30.54;99186.17;240535;1178;73669;-61
2023/11/24 17:28:20;;;;;;;;;25.25;24.50;;;;;24.50;30.65;99182.94;240651;1177;72869;-61
2023/11/24 17:33:27;;;;;;;;;22.75;22.00;;;;;24.47;30.64;99185.48;240853;1182;74011;-63
2023/11/24 17:38:34;;;;;;;;;26.00;24.67;;;;;24.45;30.66;99198.33;240805;1177;73671;-61
2023/11/24 17:43:37;;;;;;;;;24.50;22.50;;;;;24.43;30.68;99197.13;240762;1182;73359;-64
2023/11/24 17:48:42;;;;;;;;;21.33;21.33;;;;;24.41;30.74;99198.20;240491;1190;72940;-67
2023/11/24 17:53:46;;;;;;;;;24.00;23.00;;;;;24.40;30.89;99210.95;240441;1183;74436;-64
2023/11/24 17:58:52;;;;;;;;;25.25;23.00;;;;;24.39;30.80;99211.49;240517;1190;73492;-63
2023/11/24 18:03:55;;;;;;;;;20.75;20.75;;;;;24.38;30.81;99201.54;240464;1177;73613;-63
2023/11/24 18:08:59;;;;;;;;;23.75;23.25;;;;;24.36;30.96;99202.67;240539;1178;73813;-64
2023/11/24 18:14:03;;;;;;;;;24.50;23.00;;;;;24.34;31.06;99196.91;240498;1177;73052;-63
2023/11/24 18:19:07;;;;;;;;;23.00;22.25;;;;;24.40;30.88;99184.15;245651;1183;72788;-66
2023/11/24 18:24:13;;;;;;;;;20.75;20.00;;;;;24.62;30.54;99188.67;245653;1177;73482;-64
2023/11/24 18:29:17;;;;;;;;;24.50;23.50;;;;;24.77;30.26;99183.34;245576;1177;73537;-64
2023/11/24 18:34:26;;;;;;;;;22.75;20.75;;;;;24.85;30.19;99169.45;245555;1177;72655;-63
2023/11/24 18:39:30;;;;;;;;;23.75;21.00;;;;;24.91;30.15;99173.55;245622;1178;74041;-63
2023/11/24 18:44:34;;;;;;;;;22.75;22.75;;;;;24.93;30.06;99184.38;245623;1182;73951;-63
2023/11/24 18:49:40;;;;;;;;;24.75;24.75;;;;;24.94;30.06;99193.84;245635;1180;73412;-64
2023/11/24 18:54:43;;;;;;;;;23.50;21.00;;;;;24.96;29.97;99194.02;245688;1182;73572;-64
2023/11/24 18:59:48;;;;;;;;;23.00;22.50;;;;;24.98;29.87;99193.90;245693;1177;74716;-63
2023/11/24 19:04:53;;;;;;;;;21.25;19.75;;;;;24.98;30.07;99195.15;245641;1182;73532;-64
2023/11/24 19:09:58;;;;;;;;;20.00;19.50;;;;;24.98;30.05;99209.59;245657;1182;73276;-64
2023/11/24 19:15:03;;;;;;;;;20.50;20.50;;;;;24.97;29.98;99213.70;245657;1182;72572;-64
2023/11/24 19:20:11;;;;;;;;;23.00;22.00;;;;;24.98;29.85;99204.67;245646;1177;73980;-64
2023/11/24 19:25:15;;;;;;;;;18.75;17.50;;;;;24.97;29.92;99210.58;245662;1183;73050;-63
2023/11/24 19:30:18;;;;;;;;;20.00;19.25;;;;;24.97;30.05;99210.52;245634;1177;73047;-64
2023/11/24 19:35:21;;;;;;;;;21.75;21.75;;;;;24.96;30.18;99210.14;245645;1184;73782;-64
2023/11/24 19:40:25;;;;;;;;;18.67;18.67;;;;;24.96;30.05;99216.05;245699;1181;57510;-63
2023/11/24 19:45:28;;;;;;;;;22.25;20.75;;;;;24.96;30.00;99226.39;245632;1182;73154;-64
2023/11/24 19:50:32;;;;;;;;;20.25;19.75;;;;;24.96;30.04;99220.91;245645;1182;57525;-64
2023/11/24 19:55:35;;;;;;;;;21.67;21.00;;;;;24.94;30.17;99213.92;245637;1182;72937;-64
2023/11/24 20:00:39;;;;;;;;;22.00;21.25;;;;;24.94;30.14;99210.25;245615;1182;73148;-64
2023/11/24 20:05:45;;;;;;;;;20.25;19.00;;;;;24.93;30.19;99195.05;245625;1183;73603;-60
2023/11/24 20:10:49;;;;;;;;;23.00;23.00;;;;;24.92;30.26;99200.61;245717;1177;72896;-62
2023/11/24 20:15:56;;;;;;;;;23.75;21.75;;;;;24.91;30.22;99196.23;245700;1177;73896;-61
2023/11/24 20:21:00;;;;;;;;;23.33;23.00;;;;;24.92;30.20;99203.63;245652;1182;73602;-60
2023/11/24 20:26:04;;;;;;;;;20.00;18.00;;;;;24.91;30.22;99207.39;245712;1181;73386;-63
2023/11/24 20:31:12;;;;;;;;;27.33;27.33;;;;;24.91;30.23;99206.02;245618;1177;74396;-64
2023/11/24 20:36:20;;;;;;;;;21.25;19.00;;;;;24.90;30.19;99208.05;245575;1182;73661;-65
2023/11/24 20:41:24;;;;;;;;;20.75;20.00;;;;;24.90;30.09;99189.95;245621;1177;73055;-63
2023/11/24 20:46:29;;;;;;;;;17.75;17.75;;;;;24.89;30.27;99182.73;245610;1182;73172;-64
2023/11/24 20:51:33;;;;;;;;;20.00;18.75;;;;;24.90;30.18;99161.19;245605;1183;72885;-64
2023/11/24 20:56:36;;;;;;;;;19.00;16.33;;;;;24.88;30.33;99151.40;245606;1190;73694;-64
2023/11/24 21:01:43;;;;;;;;;18.00;16.75;;;;;24.88;30.24;99147.57;245598;1177;74547;-64
2023/11/24 21:06:46;;;;;;;;;22.25;20.25;;;;;24.87;30.23;99131.88;245561;1189;73696;-63
2023/11/24 21:11:49;;;;;;;;;20.25;20.25;;;;;24.87;30.29;99125.08;245540;1182;73407;-64
2023/11/24 21:16:55;;;;;;;;;19.00;16.75;;;;;24.86;30.27;99124.10;245525;1182;57485;-64
2023/11/24 21:21:59;;;;;;;;;21.50;21.00;;;;;24.86;30.30;99126.84;245573;1183;73793;-65
2023/11/24 21:27:03;;;;;;;;;22.75;20.75;;;;;24.85;30.33;99125.04;245586;1183;73206;-63
2023/11/24 21:32:06;;;;;;;;;21.75;21.25;;;;;24.85;30.27;99118.86;245550;1182;74102;-65
2023/11/24 21:37:15;;;;;;;;;20.75;18.75;;;;;24.84;30.33;99109.13;245568;1179;74551;-64
2023/11/24 21:42:18;;;;;;;;;18.25;18.25;;;;;24.84;30.33;99105.74;245555;1182;74518;-63
2023/11/24 21:47:22;;;;;;;;;19.00;19.00;;;;;24.84;30.40;99108.14;245655;1183;73345;-65
2023/11/24 21:52:28;;;;;;;;;23.25;21.50;;;;;24.83;30.31;99129.75;245707;1182;74521;-60
2023/11/24 21:57:32;;;;;;;;;16.75;16.75;;;;;24.84;30.35;99138.21;245748;1177;72894;-60
2023/11/24 22:02:37;;;;;;;;;16.67;16.67;;;;;24.85;30.40;99146.98;245702;1182;73819;-61
2023/11/24 22:07:43;;;;;;;;;17.75;17.75;;;;;24.84;30.34;99134.29;245664;1177;73901;-61
2023/11/24 22:12:47;;;;;;;;;21.00;20.00;;;;;24.83;30.45;99138.05;245711;1182;74269;-61
2023/11/24 22:17:51;;;;;;;;;21.50;20.25;;;;;24.82;30.41;99147.73;245646;1190;74081;-62
2023/11/24 22:22:54;;;;;;;;;18.50;18.50;;;;;24.82;30.51;99154.13;245714;1177;57524;-62
2023/11/24 22:27:57;;;;;;;;;17.75;17.75;;;;;24.82;30.44;99146.20;245740;1182;73532;-62
2023/11/24 22:33:05;;;;;;;;;21.25;20.50;;;;;24.81;30.56;99147.29;245678;1183;74836;-60
2023/11/24 22:38:11;;;;;;;;;18.00;18.00;;;;;24.81;30.39;99136.24;245724;1182;74010;-61
2023/11/24 22:43:18;;;;;;;;;20.00;19.67;;;;;24.81;30.36;99128.43;245764;1183;73673;-60
2023/11/24 22:48:21;;;;;;;;;20.50;15.50;;;;;24.80;30.51;99110.06;245687;1177;73406;-61
2023/11/24 22:53:27;;;;;;;;;22.25;19.00;;;;;24.80;30.45;99106.45;245754;1183;73331;-63
2023/11/24 22:58:33;;;;;;;;;19.25;18.50;;;;;24.79;30.48;99089.73;245736;1190;73683;-60
2023/11/24 23:03:37;;;;;;;;;17.00;17.00;;;;;24.78;30.60;99086.77;245650;1177;74325;-61
2023/11/24 23:08:42;;;;;;;;;20.25;18.25;;;;;24.78;30.58;99080.59;245679;1182;73129;-63
2023/11/24 23:13:50;;;;;;;;;15.25;15.25;;;;;24.78;30.52;99079.10;245749;1183;73628;-64